sensor_id;sensor_type;location;lat;lon;timestamp;pressure;altitude;pressure_sealevel;temperature;humidity
78409;BME280;67697;50.750;-3.270;2023-10-19T00:02:03;97847.42;;;13.31;100.00
78409;BME280;67697;50.750;-3.270;2023-10-19T00:04:28;97842.93;;;13.69;100.00
78409;BME280;67697;50.750;-3.270;2023-10-19T00:06:54;97840.32;;;13.62;100.00
78409;BME280;67697;50.750;-3.270;2023-10-19T00:09:20;97831.86;;;14.10;100.00
78409;BME280;67697;50.750;-3.270;2023-10-19T00:11:45;97834.13;;;13.73;100.00
78409;BME280;67697;50.750;-3.270;2023-10-19T00:14:11;97834.72;;;13.79;100.00
78409;BME280;67697;50.750;-3.270;2023-10-19T00:16:36;97831.52;;;14.23;100.00
78409;BME280;67697;50.750;-3.270;2023-10-19T00:19:02;97829.08;;;13.81;100.00
78409;BME280;67697;50.750;-3.270;2023-10-19T00:21:28;97829.71;;;13.84;100.00
78409;BME280;67697;50.750;-3.270;2023-10-19T00:23:55;97820.32;;;13.27;100.00
78409;BME280;67697;50.750;-3.270;2023-10-19T00:26:19;97812.35;;;13.82;100.00
78409;BME280;67697;50.750;-3.270;2023-10-19T00:28:45;97809.59;;;13.37;100.00
78409;BME280;67697;50.750;-3.270;2023-10-19T00:31:10;97815.20;;;13.75;100.00
78409;BME280;67697;50.750;-3.270;2023-10-19T00:33:35;97811.96;;;13.55;100.00
78409;BME280;67697;50.750;-3.270;2023-10-19T00:36:01;97809.56;;;13.62;100.00
78409;BME280;67697;50.750;-3.270;2023-10-19T00:38:27;97807.87;;;13.31;100.00
78409;BME280;67697;50.750;-3.270;2023-10-19T00:40:53;97803.36;;;14.05;100.00
78409;BME280;67697;50.750;-3.270;2023-10-19T00:43:26;97800.73;;;13.86;100.00
78409;BME280;67697;50.750;-3.270;2023-10-19T00:45:44;97789.57;;;13.56;100.00
78409;BME280;67697;50.750;-3.270;2023-10-19T00:48:09;97786.90;;;13.27;100.00
78409;BME280;67697;50.750;-3.270;2023-10-19T00:50:34;97782.14;;;13.89;100.00
78409;BME280;67697;50.750;-3.270;2023-10-19T00:53:00;97781.21;;;13.34;100.00
78409;BME280;67697;50.750;-3.270;2023-10-19T00:55:26;97771.32;;;14.22;100.00
78409;BME280;67697;50.750;-3.270;2023-10-19T00:57:51;97765.54;;;13.91;100.00
78409;BME280;67697;50.750;-3.270;2023-10-19T01:00:17;97761.29;;;13.96;100.00
78409;BME280;67697;50.750;-3.270;2023-10-19T01:02:42;97763.37;;;13.65;100.00
78409;BME280;67697;50.750;-3.270;2023-10-19T01:05:08;97761.74;;;13.62;100.00
78409;BME280;67697;50.750;-3.270;2023-10-19T01:07:33;97759.09;;;13.55;100.00
78409;BME280;67697;50.750;-3.270;2023-10-19T01:10:00;97757.91;;;13.49;100.00
78409;BME280;67697;50.750;-3.270;2023-10-19T01:12:23;97758.29;;;13.73;100.00
78409;BME280;67697;50.750;-3.270;2023-10-19T01:17:14;97740.78;;;13.76;100.00
78409;BME280;67697;50.750;-3.270;2023-10-19T01:19:40;97736.85;;;13.43;100.00
78409;BME280;67697;50.750;-3.270;2023-10-19T01:22:05;97726.23;;;13.39;100.00
78409;BME280;67697;50.750;-3.270;2023-10-19T01:24:31;97724.57;;;13.77;100.00
78409;BME280;67697;50.750;-3.270;2023-10-19T01:26:56;97720.25;;;13.77;100.00
78409;BME280;67697;50.750;-3.270;2023-10-19T01:29:22;97716.91;;;14.05;100.00
78409;BME280;67697;50.750;-3.270;2023-10-19T01:31:48;97711.66;;;13.48;100.00
78409;BME280;67697;50.750;-3.270;2023-10-19T01:34:13;97707.30;;;13.81;100.00
78409;BME280;67697;50.750;-3.270;2023-10-19T01:36:40;97698.73;;;13.85;100.00
78409;BME280;67697;50.750;-3.270;2023-10-19T01:39:05;97693.28;;;13.94;100.00
78409;BME280;67697;50.750;-3.270;2023-10-19T01:41:30;97688.93;;;14.00;100.00
78409;BME280;67697;50.750;-3.270;2023-10-19T01:43:55;97681.17;;;13.87;100.00
78409;BME280;67697;50.750;-3.270;2023-10-19T01:46:22;97687.36;;;13.84;100.00
78409;BME280;67697;50.750;-3.270;2023-10-19T01:48:46;97677.48;;;14.44;100.00
78409;BME280;67697;50.750;-3.270;2023-10-19T01:51:12;97677.14;;;13.90;100.00
78409;BME280;67697;50.750;-3.270;2023-10-19T01:53:39;97672.72;;;14.16;100.00
78409;BME280;67697;50.750;-3.270;2023-10-19T01:56:03;97659.16;;;13.88;100.00
78409;BME280;67697;50.750;-3.270;2023-10-19T01:58:29;97659.70;;;13.92;100.00
78409;BME280;67697;50.750;-3.270;2023-10-19T02:00:54;97651.39;;;13.59;100.00
78409;BME280;67697;50.750;-3.270;2023-10-19T02:03:20;97647.46;;;13.65;100.00
78409;BME280;67697;50.750;-3.270;2023-10-19T02:05:44;97646.39;;;13.58;100.00
78409;BME280;67697;50.750;-3.270;2023-10-19T02:08:10;97635.28;;;13.75;100.00
78409;BME280;67697;50.750;-3.270;2023-10-19T02:10:35;97630.56;;;13.81;100.00
78409;BME280;67697;50.750;-3.270;2023-10-19T02:13:01;97626.72;;;13.68;100.00
78409;BME280;67697;50.750;-3.270;2023-10-19T02:15:26;97613.06;;;13.76;100.00
78409;BME280;67697;50.750;-3.270;2023-10-19T02:17:52;97607.15;;;13.86;100.00
78409;BME280;67697;50.750;-3.270;2023-10-19T02:20:18;97607.35;;;13.94;100.00
78409;BME280;67697;50.750;-3.270;2023-10-19T02:22:43;97601.07;;;13.88;100.00
78409;BME280;67697;50.750;-3.270;2023-10-19T02:25:08;97597.75;;;13.70;100.00
78409;BME280;67697;50.750;-3.270;2023-10-19T02:27:34;97593.95;;;13.59;100.00
78409;BME280;67697;50.750;-3.270;2023-10-19T02:30:00;97589.30;;;13.44;100.00
78409;BME280;67697;50.750;-3.270;2023-10-19T02:32:25;97584.01;;;13.74;100.00
78409;BME280;67697;50.750;-3.270;2023-10-19T02:34:50;97584.07;;;13.30;100.00
78409;BME280;67697;50.750;-3.270;2023-10-19T02:37:16;97598.72;;;13.02;100.00
78409;BME280;67697;50.750;-3.270;2023-10-19T02:39:41;97587.43;;;12.79;100.00
78409;BME280;67697;50.750;-3.270;2023-10-19T02:42:07;97590.10;;;12.85;100.00
78409;BME280;67697;50.750;-3.270;2023-10-19T02:44:32;97587.90;;;13.10;100.00
78409;BME280;67697;50.750;-3.270;2023-10-19T02:46:58;97587.74;;;13.03;100.00
78409;BME280;67697;50.750;-3.270;2023-10-19T02:49:24;97581.88;;;12.71;100.00
78409;BME280;67697;50.750;-3.270;2023-10-19T02:51:51;97580.51;;;12.97;100.00
78409;BME280;67697;50.750;-3.270;2023-10-19T02:54:18;97585.05;;;12.81;100.00
78409;BME280;67697;50.750;-3.270;2023-10-19T02:56:40;97583.02;;;12.86;100.00
78409;BME280;67697;50.750;-3.270;2023-10-19T02:59:06;97579.58;;;12.99;100.00
78409;BME280;67697;50.750;-3.270;2023-10-19T03:01:32;97577.69;;;13.25;100.00
78409;BME280;67697;50.750;-3.270;2023-10-19T03:03:57;97577.81;;;13.00;100.00
78409;BME280;67697;50.750;-3.270;2023-10-19T03:06:23;97574.64;;;13.07;100.00
78409;BME280;67697;50.750;-3.270;2023-10-19T03:08:49;97571.05;;;13.14;100.00
78409;BME280;67697;50.750;-3.270;2023-10-19T03:11:14;97562.74;;;13.16;100.00
78409;BME280;67697;50.750;-3.270;2023-10-19T03:13:40;97563.16;;;12.64;100.00
78409;BME280;67697;50.750;-3.270;2023-10-19T03:16:05;97562.16;;;13.14;100.00
78409;BME280;67697;50.750;-3.270;2023-10-19T03:18:31;97556.55;;;13.13;100.00
78409;BME280;67697;50.750;-3.270;2023-10-19T03:20:56;97549.87;;;13.47;100.00
78409;BME280;67697;50.750;-3.270;2023-10-19T03:23:21;97545.09;;;13.52;100.00
78409;BME280;67697;50.750;-3.270;2023-10-19T03:25:53;97542.30;;;13.58;100.00
78409;BME280;67697;50.750;-3.270;2023-10-19T03:28:13;97547.37;;;13.72;100.00
78409;BME280;67697;50.750;-3.270;2023-10-19T03:30:38;97532.39;;;13.43;100.00
78409;BME280;67697;50.750;-3.270;2023-10-19T03:33:04;97534.66;;;13.37;100.00
78409;BME280;67697;50.750;-3.270;2023-10-19T03:35:29;97529.00;;;13.26;100.00
78409;BME280;67697;50.750;-3.270;2023-10-19T03:37:55;97526.71;;;13.21;100.00
78409;BME280;67697;50.750;-3.270;2023-10-19T03:40:20;97521.00;;;13.25;100.00
78409;BME280;67697;50.750;-3.270;2023-10-19T03:42:46;97516.00;;;13.06;100.00
78409;BME280;67697;50.750;-3.270;2023-10-19T03:45:11;97516.93;;;13.56;100.00
78409;BME280;67697;50.750;-3.270;2023-10-19T03:47:37;97508.92;;;13.24;100.00
78409;BME280;67697;50.750;-3.270;2023-10-19T03:50:03;97504.36;;;13.41;100.00
78409;BME280;67697;50.750;-3.270;2023-10-19T03:52:28;97506.22;;;12.97;100.00
78409;BME280;67697;50.750;-3.270;2023-10-19T03:54:54;97504.97;;;13.38;100.00
78409;BME280;67697;50.750;-3.270;2023-10-19T03:57:19;97499.42;;;13.94;100.00
78409;BME280;67697;50.750;-3.270;2023-10-19T03:59:46;97495.09;;;13.84;100.00
78409;BME280;67697;50.750;-3.270;2023-10-19T04:02:11;97500.29;;;13.41;100.00
78409;BME280;67697;50.750;-3.270;2023-10-19T04:04:36;97495.18;;;13.65;100.00
78409;BME280;67697;50.750;-3.270;2023-10-19T04:07:02;97487.85;;;13.94;100.00
78409;BME280;67697;50.750;-3.270;2023-10-19T04:09:27;97490.19;;;13.65;100.00
78409;BME280;67697;50.750;-3.270;2023-10-19T04:11:53;97485.55;;;13.62;100.00
78409;BME280;67697;50.750;-3.270;2023-10-19T04:14:18;97485.77;;;13.67;100.00
78409;BME280;67697;50.750;-3.270;2023-10-19T04:16:44;97483.13;;;13.54;100.00
78409;BME280;67697;50.750;-3.270;2023-10-19T04:19:09;97483.88;;;13.42;100.00
78409;BME280;67697;50.750;-3.270;2023-10-19T04:21:35;97480.63;;;13.48;100.00
78409;BME280;67697;50.750;-3.270;2023-10-19T04:24:00;97473.08;;;13.66;100.00
78409;BME280;67697;50.750;-3.270;2023-10-19T04:26:26;97480.15;;;13.62;100.00
78409;BME280;67697;50.750;-3.270;2023-10-19T04:28:50;97478.11;;;13.49;100.00
78409;BME280;67697;50.750;-3.270;2023-10-19T04:31:16;97476.29;;;13.59;100.00
78409;BME280;67697;50.750;-3.270;2023-10-19T04:33:42;97476.16;;;13.76;100.00
78409;BME280;67697;50.750;-3.270;2023-10-19T04:36:07;97472.99;;;13.61;100.00
78409;BME280;67697;50.750;-3.270;2023-10-19T04:38:32;97466.60;;;13.64;100.00
78409;BME280;67697;50.750;-3.270;2023-10-19T04:41:04;97464.20;;;13.80;100.00
78409;BME280;67697;50.750;-3.270;2023-10-19T04:43:23;97466.42;;;13.76;100.00
78409;BME280;67697;50.750;-3.270;2023-10-19T04:45:49;97461.49;;;13.92;100.00
78409;BME280;67697;50.750;-3.270;2023-10-19T04:48:14;97456.70;;;14.03;100.00
78409;BME280;67697;50.750;-3.270;2023-10-19T04:50:40;97462.42;;;13.58;100.00
78409;BME280;67697;50.750;-3.270;2023-10-19T04:53:05;97461.70;;;13.60;100.00
78409;BME280;67697;50.750;-3.270;2023-10-19T04:55:31;97462.54;;;13.81;100.00
78409;BME280;67697;50.750;-3.270;2023-10-19T04:57:56;97462.47;;;13.61;100.00
78409;BME280;67697;50.750;-3.270;2023-10-19T05:00:22;97456.87;;;13.66;100.00
78409;BME280;67697;50.750;-3.270;2023-10-19T05:02:47;97464.74;;;13.49;100.00
78409;BME280;67697;50.750;-3.270;2023-10-19T05:05:12;97463.47;;;13.97;100.00
78409;BME280;67697;50.750;-3.270;2023-10-19T05:07:38;97464.47;;;14.01;100.00
78409;BME280;67697;50.750;-3.270;2023-10-19T05:10:04;97467.05;;;14.06;100.00
78409;BME280;67697;50.750;-3.270;2023-10-19T05:12:29;97463.78;;;13.98;100.00
78409;BME280;67697;50.750;-3.270;2023-10-19T05:14:55;97457.22;;;14.24;100.00
78409;BME280;67697;50.750;-3.270;2023-10-19T05:17:20;97461.66;;;13.99;100.00
78409;BME280;67697;50.750;-3.270;2023-10-19T05:19:46;97462.06;;;13.73;100.00
78409;BME280;67697;50.750;-3.270;2023-10-19T05:22:11;97457.81;;;13.70;100.00
78409;BME280;67697;50.750;-3.270;2023-10-19T05:24:37;97453.81;;;13.93;100.00
78409;BME280;67697;50.750;-3.270;2023-10-19T05:27:03;97460.73;;;13.45;100.00
78409;BME280;67697;50.750;-3.270;2023-10-19T05:29:31;97459.98;;;13.93;100.00
78409;BME280;67697;50.750;-3.270;2023-10-19T05:31:54;97459.24;;;14.00;100.00
78409;BME280;67697;50.750;-3.270;2023-10-19T05:34:19;97460.14;;;13.75;100.00
78409;BME280;67697;50.750;-3.270;2023-10-19T05:36:45;97457.97;;;13.88;100.00
78409;BME280;67697;50.750;-3.270;2023-10-19T05:39:11;97454.40;;;14.10;100.00
78409;BME280;67697;50.750;-3.270;2023-10-19T05:41:36;97454.56;;;13.96;100.00
78409;BME280;67697;50.750;-3.270;2023-10-19T05:44:02;97452.43;;;13.67;100.00
78409;BME280;67697;50.750;-3.270;2023-10-19T05:46:27;97455.15;;;13.91;100.00
78409;BME280;67697;50.750;-3.270;2023-10-19T05:48:53;97458.25;;;14.05;100.00
78409;BME280;67697;50.750;-3.270;2023-10-19T05:51:19;97456.61;;;13.75;100.00
78409;BME280;67697;50.750;-3.270;2023-10-19T05:53:44;97453.03;;;13.87;100.00
78409;BME280;67697;50.750;-3.270;2023-10-19T05:56:09;97454.44;;;13.49;100.00
78409;BME280;67697;50.750;-3.270;2023-10-19T05:58:35;97456.41;;;13.26;100.00
78409;BME280;67697;50.750;-3.270;2023-10-19T06:01:01;97459.85;;;13.52;100.00
78409;BME280;67697;50.750;-3.270;2023-10-19T06:03:26;97456.41;;;13.84;100.00
78409;BME280;67697;50.750;-3.270;2023-10-19T06:05:52;97450.19;;;14.02;100.00
78409;BME280;67697;50.750;-3.270;2023-10-19T06:08:17;97450.07;;;13.93;100.00
78409;BME280;67697;50.750;-3.270;2023-10-19T06:10:42;97447.19;;;13.71;100.00
78409;BME280;67697;50.750;-3.270;2023-10-19T06:13:08;97440.73;;;13.49;100.00
78409;BME280;67697;50.750;-3.270;2023-10-19T06:15:34;97444.09;;;13.83;100.00
78409;BME280;67697;50.750;-3.270;2023-10-19T06:17:59;97446.52;;;14.14;100.00
78409;BME280;67697;50.750;-3.270;2023-10-19T06:20:25;97443.88;;;13.64;100.00
78409;BME280;67697;50.750;-3.270;2023-10-19T06:22:51;97444.14;;;13.34;100.00
78409;BME280;67697;50.750;-3.270;2023-10-19T06:25:16;97451.70;;;13.36;100.00
78409;BME280;67697;50.750;-3.270;2023-10-19T06:27:41;97449.69;;;13.42;100.00
78409;BME280;67697;50.750;-3.270;2023-10-19T06:30:07;97446.71;;;13.39;100.00
78409;BME280;67697;50.750;-3.270;2023-10-19T06:32:32;97443.60;;;13.86;100.00
78409;BME280;67697;50.750;-3.270;2023-10-19T06:34:58;97446.73;;;13.64;100.00
78409;BME280;67697;50.750;-3.270;2023-10-19T06:37:23;97448.63;;;13.65;100.00
78409;BME280;67697;50.750;-3.270;2023-10-19T06:39:49;97453.13;;;13.77;100.00
78409;BME280;67697;50.750;-3.270;2023-10-19T06:42:15;97453.47;;;13.69;100.00
78409;BME280;67697;50.750;-3.270;2023-10-19T06:44:41;97454.59;;;14.03;100.00
78409;BME280;67697;50.750;-3.270;2023-10-19T06:47:06;97446.41;;;14.00;100.00
78409;BME280;67697;50.750;-3.270;2023-10-19T06:49:32;97439.70;;;14.04;100.00
78409;BME280;67697;50.750;-3.270;2023-10-19T06:51:57;97441.02;;;14.11;100.00
78409;BME280;67697;50.750;-3.270;2023-10-19T06:54:22;97441.29;;;13.92;100.00
78409;BME280;67697;50.750;-3.270;2023-10-19T06:56:48;97443.31;;;13.89;100.00
78409;BME280;67697;50.750;-3.270;2023-10-19T06:59:13;97451.81;;;13.84;100.00
78409;BME280;67697;50.750;-3.270;2023-10-19T07:01:39;97437.43;;;13.54;100.00
78409;BME280;67697;50.750;-3.270;2023-10-19T07:04:05;97439.08;;;13.67;100.00
78409;BME280;67697;50.750;-3.270;2023-10-19T07:06:30;97426.04;;;13.84;100.00
78409;BME280;67697;50.750;-3.270;2023-10-19T07:08:56;97433.36;;;14.11;100.00
78409;BME280;67697;50.750;-3.270;2023-10-19T07:11:22;97430.48;;;13.94;100.00
78409;BME280;67697;50.750;-3.270;2023-10-19T07:13:46;97427.52;;;14.11;100.00
78409;BME280;67697;50.750;-3.270;2023-10-19T07:16:12;97432.49;;;13.99;100.00
78409;BME280;67697;50.750;-3.270;2023-10-19T07:18:37;97431.37;;;13.91;100.00
78409;BME280;67697;50.750;-3.270;2023-10-19T07:21:03;97430.51;;;14.13;100.00
78409;BME280;67697;50.750;-3.270;2023-10-19T07:23:28;97426.90;;;14.40;100.00
78409;BME280;67697;50.750;-3.270;2023-10-19T07:25:53;97425.05;;;14.35;100.00
78409;BME280;67697;50.750;-3.270;2023-10-19T07:28:19;97418.13;;;14.38;100.00
78409;BME280;67697;50.750;-3.270;2023-10-19T07:30:44;97414.17;;;14.15;100.00
78409;BME280;67697;50.750;-3.270;2023-10-19T07:33:11;97416.88;;;14.39;100.00
78409;BME280;67697;50.750;-3.270;2023-10-19T07:35:37;97412.15;;;14.30;100.00
78409;BME280;67697;50.750;-3.270;2023-10-19T07:38:02;97410.44;;;13.89;100.00
78409;BME280;67697;50.750;-3.270;2023-10-19T07:40:27;97405.88;;;13.80;100.00
78409;BME280;67697;50.750;-3.270;2023-10-19T07:42:53;97410.50;;;13.73;100.00
78409;BME280;67697;50.750;-3.270;2023-10-19T07:45:18;97412.50;;;13.91;100.00
78409;BME280;67697;50.750;-3.270;2023-10-19T07:47:43;97417.73;;;13.72;100.00
78409;BME280;67697;50.750;-3.270;2023-10-19T07:50:09;97417.19;;;13.71;100.00
78409;BME280;67697;50.750;-3.270;2023-10-19T07:52:34;97415.15;;;13.69;100.00
78409;BME280;67697;50.750;-3.270;2023-10-19T07:54:59;97419.58;;;13.89;100.00
78409;BME280;67697;50.750;-3.270;2023-10-19T07:57:25;97415.04;;;13.78;100.00
78409;BME280;67697;50.750;-3.270;2023-10-19T07:59:50;97414.57;;;14.00;100.00
78409;BME280;67697;50.750;-3.270;2023-10-19T08:02:16;97416.81;;;13.50;100.00
78409;BME280;67697;50.750;-3.270;2023-10-19T08:04:41;97422.99;;;13.74;100.00
78409;BME280;67697;50.750;-3.270;2023-10-19T08:07:06;97419.11;;;14.07;100.00
78409;BME280;67697;50.750;-3.270;2023-10-19T08:09:32;97414.73;;;13.69;100.00
78409;BME280;67697;50.750;-3.270;2023-10-19T08:11:58;97410.67;;;13.98;100.00
78409;BME280;67697;50.750;-3.270;2023-10-19T08:14:24;97401.93;;;13.60;100.00
78409;BME280;67697;50.750;-3.270;2023-10-19T08:16:48;97401.30;;;13.53;100.00
78409;BME280;67697;50.750;-3.270;2023-10-19T08:19:14;97400.62;;;13.72;100.00
78409;BME280;67697;50.750;-3.270;2023-10-19T08:21:40;97399.38;;;13.65;100.00
78409;BME280;67697;50.750;-3.270;2023-10-19T08:24:06;97396.95;;;13.73;100.00
78409;BME280;67697;50.750;-3.270;2023-10-19T08:26:30;97398.77;;;13.85;100.00
78409;BME280;67697;50.750;-3.270;2023-10-19T08:28:56;97395.36;;;14.04;100.00
78409;BME280;67697;50.750;-3.270;2023-10-19T08:31:21;97387.09;;;14.24;100.00
78409;BME280;67697;50.750;-3.270;2023-10-19T08:33:47;97384.42;;;13.72;100.00
78409;BME280;67697;50.750;-3.270;2023-10-19T08:36:18;97384.69;;;13.70;100.00
78409;BME280;67697;50.750;-3.270;2023-10-19T08:38:38;97384.66;;;13.67;100.00
78409;BME280;67697;50.750;-3.270;2023-10-19T08:41:03;97386.41;;;13.52;100.00
78409;BME280;67697;50.750;-3.270;2023-10-19T08:43:28;97376.61;;;13.77;100.00
78409;BME280;67697;50.750;-3.270;2023-10-19T08:45:54;97385.75;;;13.35;100.00
78409;BME280;67697;50.750;-3.270;2023-10-19T08:48:19;97389.14;;;13.75;100.00
78409;BME280;67697;50.750;-3.270;2023-10-19T08:50:45;97387.22;;;13.99;100.00
78409;BME280;67697;50.750;-3.270;2023-10-19T08:53:10;97390.05;;;13.86;100.00
78409;BME280;67697;50.750;-3.270;2023-10-19T08:55:36;97388.78;;;13.82;100.00
78409;BME280;67697;50.750;-3.270;2023-10-19T08:58:02;97381.52;;;13.98;100.00
78409;BME280;67697;50.750;-3.270;2023-10-19T09:00:28;97380.70;;;14.01;100.00
78409;BME280;67697;50.750;-3.270;2023-10-19T09:02:54;97379.83;;;13.85;100.00
78409;BME280;67697;50.750;-3.270;2023-10-19T09:05:18;97383.24;;;14.00;100.00
78409;BME280;67697;50.750;-3.270;2023-10-19T09:07:44;97381.44;;;13.80;100.00
78409;BME280;67697;50.750;-3.270;2023-10-19T09:10:09;97377.95;;;13.98;100.00
78409;BME280;67697;50.750;-3.270;2023-10-19T09:12:34;97379.12;;;13.86;100.00
78409;BME280;67697;50.750;-3.270;2023-10-19T09:15:00;97379.97;;;14.23;100.00
78409;BME280;67697;50.750;-3.270;2023-10-19T09:17:29;97379.09;;;14.03;100.00
78409;BME280;67697;50.750;-3.270;2023-10-19T09:19:51;97374.19;;;14.23;100.00
78409;BME280;67697;50.750;-3.270;2023-10-19T09:22:17;97371.38;;;14.22;100.00
78409;BME280;67697;50.750;-3.270;2023-10-19T09:24:43;97367.93;;;14.41;100.00
78409;BME280;67697;50.750;-3.270;2023-10-19T09:27:08;97368.55;;;14.36;100.00
78409;BME280;67697;50.750;-3.270;2023-10-19T09:29:33;97362.11;;;14.10;100.00
78409;BME280;67697;50.750;-3.270;2023-10-19T09:31:59;97362.80;;;13.92;100.00
78409;BME280;67697;50.750;-3.270;2023-10-19T09:34:25;97362.11;;;14.37;100.00
78409;BME280;67697;50.750;-3.270;2023-10-19T09:36:50;97365.61;;;14.41;100.00
78409;BME280;67697;50.750;-3.270;2023-10-19T09:39:15;97364.03;;;14.14;100.00
78409;BME280;67697;50.750;-3.270;2023-10-19T09:41:41;97364.54;;;14.28;100.00
78409;BME280;67697;50.750;-3.270;2023-10-19T09:44:07;97359.30;;;14.33;100.00
78409;BME280;67697;50.750;-3.270;2023-10-19T09:46:32;97363.44;;;14.21;100.00
78409;BME280;67697;50.750;-3.270;2023-10-19T09:48:57;97361.26;;;14.44;100.00
78409;BME280;67697;50.750;-3.270;2023-10-19T09:51:23;97355.30;;;14.43;100.00
78409;BME280;67697;50.750;-3.270;2023-10-19T09:53:51;97351.24;;;14.49;100.00
78409;BME280;67697;50.750;-3.270;2023-10-19T09:56:17;97348.99;;;14.73;100.00
78409;BME280;67697;50.750;-3.270;2023-10-19T09:58:44;97350.73;;;14.37;100.00
78409;BME280;67697;50.750;-3.270;2023-10-19T10:01:10;97349.56;;;14.06;100.00
78409;BME280;67697;50.750;-3.270;2023-10-19T10:03:42;97349.30;;;14.21;100.00
78409;BME280;67697;50.750;-3.270;2023-10-19T10:05:55;97351.63;;;14.45;100.00
78409;BME280;67697;50.750;-3.270;2023-10-19T10:08:31;97351.63;;;14.31;100.00
78409;BME280;67697;50.750;-3.270;2023-10-19T10:10:51;97355.80;;;14.27;100.00
78409;BME280;67697;50.750;-3.270;2023-10-19T10:15:41;97350.30;;;14.48;100.00
78409;BME280;67697;50.750;-3.270;2023-10-19T10:18:11;97354.40;;;14.71;100.00
78409;BME280;67697;50.750;-3.270;2023-10-19T10:20:31;97346.16;;;14.60;100.00
78409;BME280;67697;50.750;-3.270;2023-10-19T10:25:27;97345.72;;;14.81;100.00
78409;BME280;67697;50.750;-3.270;2023-10-19T10:27:50;97346.05;;;15.16;100.00
78409;BME280;67697;50.750;-3.270;2023-10-19T10:30:11;97340.01;;;15.23;100.00
78409;BME280;67697;50.750;-3.270;2023-10-19T10:32:45;97342.27;;;15.04;100.00
78409;BME280;67697;50.750;-3.270;2023-10-19T10:35:01;97342.09;;;14.76;100.00
78409;BME280;67697;50.750;-3.270;2023-10-19T10:37:26;97344.41;;;14.47;100.00
78409;BME280;67697;50.750;-3.270;2023-10-19T10:39:58;97340.50;;;14.59;100.00
78409;BME280;67697;50.750;-3.270;2023-10-19T10:42:17;97330.68;;;14.85;100.00
78409;BME280;67697;50.750;-3.270;2023-10-19T10:44:44;97340.11;;;14.44;100.00
78409;BME280;67697;50.750;-3.270;2023-10-19T10:47:10;97329.92;;;14.24;100.00
78409;BME280;67697;50.750;-3.270;2023-10-19T10:49:33;97330.99;;;14.49;100.00
78409;BME280;67697;50.750;-3.270;2023-10-19T10:51:59;97331.96;;;14.55;100.00
78409;BME280;67697;50.750;-3.270;2023-10-19T10:54:25;97332.15;;;14.56;100.00
78409;BME280;67697;50.750;-3.270;2023-10-19T10:56:50;97331.82;;;14.79;100.00
78409;BME280;67697;50.750;-3.270;2023-10-19T10:59:16;97329.43;;;14.27;100.00
78409;BME280;67697;50.750;-3.270;2023-10-19T11:01:41;97332.42;;;14.40;100.00
78409;BME280;67697;50.750;-3.270;2023-10-19T11:04:08;97333.12;;;14.36;100.00
78409;BME280;67697;50.750;-3.270;2023-10-19T11:06:32;97335.22;;;14.08;100.00
78409;BME280;67697;50.750;-3.270;2023-10-19T11:08:58;97338.48;;;14.81;100.00
78409;BME280;67697;50.750;-3.270;2023-10-19T11:11:23;97340.41;;;14.80;100.00
78409;BME280;67697;50.750;-3.270;2023-10-19T11:13:49;97340.73;;;14.82;100.00
78409;BME280;67697;50.750;-3.270;2023-10-19T11:16:22;97341.74;;;14.65;100.00
78409;BME280;67697;50.750;-3.270;2023-10-19T11:18:41;97340.20;;;14.13;100.00
78409;BME280;67697;50.750;-3.270;2023-10-19T11:21:07;97337.48;;;14.73;100.00
78409;BME280;67697;50.750;-3.270;2023-10-19T11:23:37;97329.80;;;14.73;100.00
78409;BME280;67697;50.750;-3.270;2023-10-19T11:25:58;97335.28;;;14.51;100.00
78409;BME280;67697;50.750;-3.270;2023-10-19T11:28:23;97320.93;;;14.73;100.00
78409;BME280;67697;50.750;-3.270;2023-10-19T11:30:48;97320.17;;;15.07;100.00
78409;BME280;67697;50.750;-3.270;2023-10-19T11:33:13;97325.60;;;15.17;100.00
78409;BME280;67697;50.750;-3.270;2023-10-19T11:35:39;97319.24;;;15.13;100.00
78409;BME280;67697;50.750;-3.270;2023-10-19T11:38:04;97323.74;;;14.69;100.00
78409;BME280;67697;50.750;-3.270;2023-10-19T11:40:30;97315.21;;;14.64;100.00
78409;BME280;67697;50.750;-3.270;2023-10-19T11:42:55;97318.37;;;14.65;100.00
78409;BME280;67697;50.750;-3.270;2023-10-19T11:45:21;97326.58;;;15.07;100.00
78409;BME280;67697;50.750;-3.270;2023-10-19T11:47:46;97317.41;;;15.12;100.00
78409;BME280;67697;50.750;-3.270;2023-10-19T11:50:12;97314.27;;;15.41;100.00
78409;BME280;67697;50.750;-3.270;2023-10-19T11:52:37;97311.73;;;15.14;100.00
78409;BME280;67697;50.750;-3.270;2023-10-19T11:55:03;97309.54;;;14.91;100.00
78409;BME280;67697;50.750;-3.270;2023-10-19T11:57:28;97314.49;;;15.01;100.00
78409;BME280;67697;50.750;-3.270;2023-10-19T11:59:53;97312.18;;;14.44;100.00
78409;BME280;67697;50.750;-3.270;2023-10-19T12:02:19;97309.04;;;14.61;100.00
78409;BME280;67697;50.750;-3.270;2023-10-19T12:04:44;97308.84;;;14.38;100.00
78409;BME280;67697;50.750;-3.270;2023-10-19T12:07:10;97303.75;;;14.68;100.00
78409;BME280;67697;50.750;-3.270;2023-10-19T12:09:36;97303.29;;;14.99;100.00
78409;BME280;67697;50.750;-3.270;2023-10-19T12:12:01;97301.11;;;15.20;100.00
78409;BME280;67697;50.750;-3.270;2023-10-19T12:14:26;97300.33;;;15.07;100.00
78409;BME280;67697;50.750;-3.270;2023-10-19T12:16:52;97302.79;;;14.73;100.00
78409;BME280;67697;50.750;-3.270;2023-10-19T12:19:17;97300.08;;;14.88;100.00
78409;BME280;67697;50.750;-3.270;2023-10-19T12:21:42;97291.36;;;14.95;100.00
78409;BME280;67697;50.750;-3.270;2023-10-19T12:24:08;97290.85;;;15.11;100.00
78409;BME280;67697;50.750;-3.270;2023-10-19T12:26:38;97289.60;;;14.96;100.00
78409;BME280;67697;50.750;-3.270;2023-10-19T12:28:59;97285.21;;;15.21;100.00
78409;BME280;67697;50.750;-3.270;2023-10-19T12:31:24;97288.27;;;15.55;100.00
78409;BME280;67697;50.750;-3.270;2023-10-19T12:33:50;97282.47;;;15.41;100.00
78409;BME280;67697;50.750;-3.270;2023-10-19T12:36:15;97280.70;;;14.96;100.00
78409;BME280;67697;50.750;-3.270;2023-10-19T12:38:41;97286.46;;;15.12;100.00